Αρχική σελίδα
METAR-TAF:

METAR-TAF

Αεροδρόμια :

Cairns, Αυστραλία

γεωγραφικό πλάτος: 16-53S, γεωγραφικό μήκος: 145-45E, υψόμετρο: 3 μ

Παρών καιρός

Η αναφορά έγινε 26 λεπτά πριν, στις 03:00 UTC
Άνεμος 15 kt από ΝA
Θερμοκρασία 24°C
Υγρασία 47%
Πίεση 1019 hPa
Ορατότητα 10 χλμ και άνω
Λίγα νέφη σε ύψος 4500 πόδια

METAR: YBCS 200300Z 13015KT 9999 FEW045 24/12 Q1019 NOSIG

Χρόνος: 13:26 (03:26 UTC)

Πρόγνωση Καιρού

Η αναφορά έγινε 4 ώρες και 26 λεπτά πριν, στις 23:00 UTC
Η πρόγνωση ισχύει από τις 20 στις 00 UTC έως τις 20 στις 24 UTC
Άνεμος 14 kt από ΝA
Ορατότητα 10 χλμ και άνω
Δεν υπάρχουν νέφη με βάση κάτω από τα 1500 μ. και δεν υπάρχουν νέφη σωρειτομελανίτες.

TAF: YBCS 192300Z 2000/2024 14014KT CAVOK

Μετεωρολογικές αναφορές και προγνώσεις για περισσότερα από 4000 αεροδρόμια (δελτία METAR και TAF).

Οι διαθέσιμοι σταθμοί απεικονίζονται στο χάρτη με κίτρινες και κόκκινες κουκκίδες.

Μετακινήστε το ποντίκι πάνω από τις κουκκίδες για να δείτε το όνομα του σταθμού.

Στη συνέχεια, κάντε κλικ για να δείτε τις μετεωρολογικές αναφορές και τις προγνώσεις καιρού.

Για να αλλάξετε το χάρτη: κάντε κλικ στα πράσινα κουμπιά με τον μαύρο σταυρό για να ζουμάρετε, στο πράσινο κουμπί με την παύλα για να αφαιρέσετε το ζουμ ή στα πράσινα βέλη για να αντιπαραβάλλετε χάρτες.


METAR-TAF: